sensor_id;sensor_type;location;lat;lon;timestamp;P1;durP1;ratioP1;P2;durP2;ratioP2
10315;SDS011;5203;48.976;8.306;2022-11-21T00:01:54;2.97;;;2.20;;
10315;SDS011;5203;48.976;8.306;2022-11-21T00:04:20;3.57;;;2.13;;
10315;SDS011;5203;48.976;8.306;2022-11-21T00:06:45;3.57;;;2.13;;
10315;SDS011;5203;48.976;8.306;2022-11-21T00:09:11;5.80;;;2.30;;
10315;SDS011;5203;48.976;8.306;2022-11-21T00:11:37;3.43;;;2.00;;
10315;SDS011;5203;48.976;8.306;2022-11-21T00:14:02;2.00;;;1.90;;
10315;SDS011;5203;48.976;8.306;2022-11-21T00:16:28;2.43;;;1.70;;
10315;SDS011;5203;48.976;8.306;2022-11-21T00:18:54;2.63;;;1.93;;
10315;SDS011;5203;48.976;8.306;2022-11-21T00:21:20;2.37;;;1.90;;
10315;SDS011;5203;48.976;8.306;2022-11-21T00:23:46;5.23;;;2.23;;
10315;SDS011;5203;48.976;8.306;2022-11-21T00:26:12;2.67;;;2.10;;
10315;SDS011;5203;48.976;8.306;2022-11-21T00:28:39;2.30;;;2.10;;
10315;SDS011;5203;48.976;8.306;2022-11-21T00:31:05;2.77;;;2.00;;
10315;SDS011;5203;48.976;8.306;2022-11-21T00:33:33;2.23;;;2.00;;
10315;SDS011;5203;48.976;8.306;2022-11-21T00:36:06;2.80;;;1.97;;
10315;SDS011;5203;48.976;8.306;2022-11-21T00:38:33;2.97;;;2.03;;
10315;SDS011;5203;48.976;8.306;2022-11-21T00:40:59;2.30;;;2.10;;
10315;SDS011;5203;48.976;8.306;2022-11-21T00:43:25;2.90;;;2.07;;
10315;SDS011;5203;48.976;8.306;2022-11-21T00:45:50;4.10;;;2.13;;
10315;SDS011;5203;48.976;8.306;2022-11-21T00:48:16;4.77;;;2.07;;
10315;SDS011;5203;48.976;8.306;2022-11-21T00:50:42;3.27;;;2.20;;
10315;SDS011;5203;48.976;8.306;2022-11-21T00:53:07;3.27;;;2.40;;
10315;SDS011;5203;48.976;8.306;2022-11-21T00:55:33;2.80;;;2.07;;
10315;SDS011;5203;48.976;8.306;2022-11-21T00:58:01;2.20;;;2.03;;
10315;SDS011;5203;48.976;8.306;2022-11-21T01:00:27;2.50;;;2.10;;
10315;SDS011;5203;48.976;8.306;2022-11-21T01:02:52;1.93;;;1.73;;
10315;SDS011;5203;48.976;8.306;2022-11-21T01:05:18;3.10;;;1.90;;
10315;SDS011;5203;48.976;8.306;2022-11-21T01:07:44;3.20;;;2.00;;
10315;SDS011;5203;48.976;8.306;2022-11-21T01:10:11;2.87;;;2.00;;
10315;SDS011;5203;48.976;8.306;2022-11-21T01:12:37;3.40;;;1.70;;
10315;SDS011;5203;48.976;8.306;2022-11-21T01:15:03;2.63;;;1.83;;
10315;SDS011;5203;48.976;8.306;2022-11-21T01:17:31;2.80;;;1.77;;
10315;SDS011;5203;48.976;8.306;2022-11-21T01:19:57;3.47;;;2.00;;
10315;SDS011;5203;48.976;8.306;2022-11-21T01:22:23;3.20;;;2.00;;
10315;SDS011;5203;48.976;8.306;2022-11-21T01:24:49;5.23;;;2.70;;
10315;SDS011;5203;48.976;8.306;2022-11-21T01:27:14;4.10;;;2.27;;
10315;SDS011;5203;48.976;8.306;2022-11-21T01:29:40;3.37;;;2.60;;
10315;SDS011;5203;48.976;8.306;2022-11-21T01:32:06;3.83;;;2.00;;
10315;SDS011;5203;48.976;8.306;2022-11-21T01:34:32;2.73;;;2.53;;
10315;SDS011;5203;48.976;8.306;2022-11-21T01:36:58;4.33;;;2.30;;
10315;SDS011;5203;48.976;8.306;2022-11-21T01:39:25;3.30;;;2.23;;
10315;SDS011;5203;48.976;8.306;2022-11-21T01:41:50;4.87;;;2.30;;
10315;SDS011;5203;48.976;8.306;2022-11-21T01:44:18;4.30;;;2.30;;
10315;SDS011;5203;48.976;8.306;2022-11-21T01:46:46;3.37;;;1.90;;
10315;SDS011;5203;48.976;8.306;2022-11-21T01:57:17;4.07;;;1.83;;
10315;SDS011;5203;48.976;8.306;2022-11-21T02:02:46;3.33;;;2.00;;
10315;SDS011;5203;48.976;8.306;2022-11-21T02:05:18;2.50;;;2.10;;
10315;SDS011;5203;48.976;8.306;2022-11-21T02:07:48;2.23;;;1.90;;
10315;SDS011;5203;48.976;8.306;2022-11-21T02:10:16;2.60;;;1.87;;
10315;SDS011;5203;48.976;8.306;2022-11-21T02:12:50;2.87;;;2.33;;
10315;SDS011;5203;48.976;8.306;2022-11-21T02:15:21;2.87;;;2.00;;
10315;SDS011;5203;48.976;8.306;2022-11-21T02:17:48;3.20;;;1.70;;
10315;SDS011;5203;48.976;8.306;2022-11-21T02:20:15;2.13;;;1.60;;
10315;SDS011;5203;48.976;8.306;2022-11-21T02:25:21;2.93;;;1.50;;
10315;SDS011;5203;48.976;8.306;2022-11-21T02:27:53;1.50;;;1.40;;
10315;SDS011;5203;48.976;8.306;2022-11-21T02:30:22;2.43;;;1.43;;
10315;SDS011;5203;48.976;8.306;2022-11-21T02:32:48;3.07;;;1.50;;
10315;SDS011;5203;48.976;8.306;2022-11-21T02:35:15;1.80;;;1.60;;
10315;SDS011;5203;48.976;8.306;2022-11-21T02:37:43;1.60;;;1.40;;
10315;SDS011;5203;48.976;8.306;2022-11-21T02:40:13;1.83;;;1.40;;
10315;SDS011;5203;48.976;8.306;2022-11-21T02:45:40;3.50;;;1.70;;
10315;SDS011;5203;48.976;8.306;2022-11-21T02:48:07;1.83;;;1.63;;
10315;SDS011;5203;48.976;8.306;2022-11-21T02:50:34;2.10;;;1.57;;
10315;SDS011;5203;48.976;8.306;2022-11-21T02:53:02;1.83;;;1.73;;
10315;SDS011;5203;48.976;8.306;2022-11-21T02:55:30;2.47;;;1.80;;
10315;SDS011;5203;48.976;8.306;2022-11-21T02:57:55;2.40;;;1.50;;
10315;SDS011;5203;48.976;8.306;2022-11-21T03:00:21;1.90;;;1.70;;
10315;SDS011;5203;48.976;8.306;2022-11-21T03:02:48;2.10;;;1.73;;
10315;SDS011;5203;48.976;8.306;2022-11-21T03:05:15;1.70;;;1.60;;
10315;SDS011;5203;48.976;8.306;2022-11-21T03:07:42;3.00;;;1.90;;
10315;SDS011;5203;48.976;8.306;2022-11-21T03:10:09;2.50;;;1.60;;
10315;SDS011;5203;48.976;8.306;2022-11-21T03:12:36;2.00;;;1.40;;
10315;SDS011;5203;48.976;8.306;2022-11-21T03:15:02;2.23;;;1.80;;
10315;SDS011;5203;48.976;8.306;2022-11-21T03:17:29;1.90;;;1.53;;
10315;SDS011;5203;48.976;8.306;2022-11-21T03:19:54;2.07;;;1.80;;
10315;SDS011;5203;48.976;8.306;2022-11-21T03:22:20;2.30;;;1.90;;
10315;SDS011;5203;48.976;8.306;2022-11-21T03:24:46;1.87;;;1.70;;
10315;SDS011;5203;48.976;8.306;2022-11-21T03:27:11;2.93;;;1.70;;
10315;SDS011;5203;48.976;8.306;2022-11-21T03:29:37;2.20;;;1.83;;
10315;SDS011;5203;48.976;8.306;2022-11-21T03:32:03;2.53;;;2.10;;
10315;SDS011;5203;48.976;8.306;2022-11-21T03:34:28;3.23;;;1.93;;
10315;SDS011;5203;48.976;8.306;2022-11-21T03:36:54;2.20;;;1.77;;
10315;SDS011;5203;48.976;8.306;2022-11-21T03:39:20;2.80;;;1.97;;
10315;SDS011;5203;48.976;8.306;2022-11-21T03:41:46;1.80;;;1.60;;
10315;SDS011;5203;48.976;8.306;2022-11-21T03:44:11;2.33;;;1.90;;
10315;SDS011;5203;48.976;8.306;2022-11-21T03:46:39;5.53;;;2.00;;
10315;SDS011;5203;48.976;8.306;2022-11-21T03:49:06;2.93;;;1.90;;
10315;SDS011;5203;48.976;8.306;2022-11-21T03:51:33;2.70;;;2.20;;
10315;SDS011;5203;48.976;8.306;2022-11-21T03:53:59;2.63;;;1.90;;
10315;SDS011;5203;48.976;8.306;2022-11-21T03:56:24;1.80;;;1.70;;
10315;SDS011;5203;48.976;8.306;2022-11-21T03:58:51;2.33;;;2.13;;
10315;SDS011;5203;48.976;8.306;2022-11-21T04:01:17;1.97;;;1.87;;
10315;SDS011;5203;48.976;8.306;2022-11-21T04:03:44;2.53;;;1.80;;
10315;SDS011;5203;48.976;8.306;2022-11-21T04:06:11;4.13;;;2.10;;
10315;SDS011;5203;48.976;8.306;2022-11-21T04:08:38;4.03;;;2.20;;
10315;SDS011;5203;48.976;8.306;2022-11-21T04:11:04;2.53;;;1.80;;
10315;SDS011;5203;48.976;8.306;2022-11-21T04:13:30;3.47;;;2.00;;
10315;SDS011;5203;48.976;8.306;2022-11-21T04:15:56;3.97;;;2.00;;
10315;SDS011;5203;48.976;8.306;2022-11-21T04:18:22;2.77;;;2.10;;
10315;SDS011;5203;48.976;8.306;2022-11-21T04:20:48;2.53;;;1.77;;
10315;SDS011;5203;48.976;8.306;2022-11-21T04:23:13;3.53;;;2.10;;
10315;SDS011;5203;48.976;8.306;2022-11-21T04:25:39;3.47;;;2.10;;
10315;SDS011;5203;48.976;8.306;2022-11-21T04:28:05;2.33;;;1.90;;
10315;SDS011;5203;48.976;8.306;2022-11-21T04:30:32;3.30;;;2.17;;
10315;SDS011;5203;48.976;8.306;2022-11-21T04:32:58;2.33;;;2.07;;
10315;SDS011;5203;48.976;8.306;2022-11-21T04:35:24;2.43;;;1.90;;
10315;SDS011;5203;48.976;8.306;2022-11-21T04:37:50;2.13;;;1.70;;
10315;SDS011;5203;48.976;8.306;2022-11-21T04:40:16;4.93;;;2.20;;
10315;SDS011;5203;48.976;8.306;2022-11-21T04:42:43;5.13;;;2.10;;
10315;SDS011;5203;48.976;8.306;2022-11-21T04:45:10;2.97;;;2.13;;
10315;SDS011;5203;48.976;8.306;2022-11-21T04:47:37;1.87;;;1.70;;
10315;SDS011;5203;48.976;8.306;2022-11-21T04:50:04;2.57;;;1.93;;
10315;SDS011;5203;48.976;8.306;2022-11-21T04:52:30;2.13;;;1.80;;
10315;SDS011;5203;48.976;8.306;2022-11-21T04:54:56;3.17;;;2.03;;
10315;SDS011;5203;48.976;8.306;2022-11-21T04:57:22;4.47;;;1.87;;
10315;SDS011;5203;48.976;8.306;2022-11-21T04:59:47;5.33;;;2.10;;
10315;SDS011;5203;48.976;8.306;2022-11-21T05:02:13;3.40;;;1.90;;
10315;SDS011;5203;48.976;8.306;2022-11-21T05:04:39;3.33;;;1.90;;
10315;SDS011;5203;48.976;8.306;2022-11-21T05:07:04;1.97;;;1.77;;
10315;SDS011;5203;48.976;8.306;2022-11-21T05:09:30;3.53;;;2.23;;
10315;SDS011;5203;48.976;8.306;2022-11-21T05:11:56;2.80;;;2.13;;
10315;SDS011;5203;48.976;8.306;2022-11-21T05:14:40;3.50;;;2.17;;
10315;SDS011;5203;48.976;8.306;2022-11-21T05:17:05;2.63;;;2.00;;
10315;SDS011;5203;48.976;8.306;2022-11-21T05:19:31;4.43;;;2.00;;
10315;SDS011;5203;48.976;8.306;2022-11-21T05:21:57;3.07;;;1.93;;
10315;SDS011;5203;48.976;8.306;2022-11-21T05:24:22;2.87;;;1.90;;
10315;SDS011;5203;48.976;8.306;2022-11-21T05:26:48;5.07;;;2.07;;
10315;SDS011;5203;48.976;8.306;2022-11-21T05:29:15;3.47;;;1.73;;
10315;SDS011;5203;48.976;8.306;2022-11-21T05:31:41;4.40;;;2.23;;
10315;SDS011;5203;48.976;8.306;2022-11-21T05:34:06;1.97;;;1.87;;
10315;SDS011;5203;48.976;8.306;2022-11-21T05:36:32;2.10;;;1.90;;
10315;SDS011;5203;48.976;8.306;2022-11-21T05:38:58;2.57;;;1.67;;
10315;SDS011;5203;48.976;8.306;2022-11-21T05:41:24;3.90;;;1.87;;
10315;SDS011;5203;48.976;8.306;2022-11-21T05:43:49;1.97;;;1.77;;
10315;SDS011;5203;48.976;8.306;2022-11-21T05:46:16;2.73;;;2.00;;
10315;SDS011;5203;48.976;8.306;2022-11-21T05:48:44;2.97;;;2.13;;
10315;SDS011;5203;48.976;8.306;2022-11-21T05:51:10;3.50;;;2.10;;
10315;SDS011;5203;48.976;8.306;2022-11-21T05:53:36;3.00;;;2.10;;
10315;SDS011;5203;48.976;8.306;2022-11-21T05:56:06;5.83;;;2.70;;
10315;SDS011;5203;48.976;8.306;2022-11-21T05:58:36;6.70;;;2.07;;
10315;SDS011;5203;48.976;8.306;2022-11-21T06:01:02;3.77;;;2.53;;
10315;SDS011;5203;48.976;8.306;2022-11-21T06:03:30;3.27;;;2.37;;
10315;SDS011;5203;48.976;8.306;2022-11-21T06:08:27;3.57;;;2.43;;
10315;SDS011;5203;48.976;8.306;2022-11-21T06:10:55;5.30;;;2.67;;
10315;SDS011;5203;48.976;8.306;2022-11-21T06:13:21;5.57;;;2.80;;
10315;SDS011;5203;48.976;8.306;2022-11-21T06:15:50;3.97;;;2.40;;
10315;SDS011;5203;48.976;8.306;2022-11-21T06:18:18;5.60;;;2.63;;
10315;SDS011;5203;48.976;8.306;2022-11-21T06:20:44;4.40;;;2.57;;
10315;SDS011;5203;48.976;8.306;2022-11-21T06:23:10;5.83;;;2.80;;
10315;SDS011;5203;48.976;8.306;2022-11-21T06:25:36;5.17;;;2.60;;
10315;SDS011;5203;48.976;8.306;2022-11-21T06:28:02;6.63;;;2.60;;
10315;SDS011;5203;48.976;8.306;2022-11-21T06:30:28;7.00;;;2.83;;
10315;SDS011;5203;48.976;8.306;2022-11-21T06:32:54;4.97;;;2.97;;
10315;SDS011;5203;48.976;8.306;2022-11-21T06:35:19;6.83;;;2.67;;
10315;SDS011;5203;48.976;8.306;2022-11-21T06:37:45;6.27;;;2.63;;
10315;SDS011;5203;48.976;8.306;2022-11-21T06:40:11;5.77;;;2.77;;
10315;SDS011;5203;48.976;8.306;2022-11-21T06:42:37;5.90;;;2.50;;
10315;SDS011;5203;48.976;8.306;2022-11-21T06:45:02;6.50;;;2.80;;
10315;SDS011;5203;48.976;8.306;2022-11-21T06:47:32;5.87;;;2.57;;
10315;SDS011;5203;48.976;8.306;2022-11-21T06:49:59;5.67;;;2.90;;
10315;SDS011;5203;48.976;8.306;2022-11-21T06:52:25;7.77;;;3.23;;
10315;SDS011;5203;48.976;8.306;2022-11-21T06:54:50;6.63;;;2.73;;
10315;SDS011;5203;48.976;8.306;2022-11-21T06:57:16;7.50;;;2.70;;
10315;SDS011;5203;48.976;8.306;2022-11-21T06:59:42;6.20;;;2.93;;
10315;SDS011;5203;48.976;8.306;2022-11-21T07:02:13;4.53;;;2.87;;
10315;SDS011;5203;48.976;8.306;2022-11-21T07:04:39;5.43;;;2.87;;
10315;SDS011;5203;48.976;8.306;2022-11-21T07:07:05;6.57;;;2.67;;
10315;SDS011;5203;48.976;8.306;2022-11-21T07:09:31;6.13;;;3.03;;
10315;SDS011;5203;48.976;8.306;2022-11-21T07:11:58;3.27;;;2.60;;
10315;SDS011;5203;48.976;8.306;2022-11-21T07:14:44;5.80;;;3.40;;
10315;SDS011;5203;48.976;8.306;2022-11-21T07:17:10;5.73;;;2.97;;
10315;SDS011;5203;48.976;8.306;2022-11-21T07:19:36;4.77;;;2.77;;
10315;SDS011;5203;48.976;8.306;2022-11-21T07:22:02;6.53;;;3.20;;
10315;SDS011;5203;48.976;8.306;2022-11-21T07:24:28;16.93;;;5.00;;
10315;SDS011;5203;48.976;8.306;2022-11-21T07:26:53;5.57;;;3.70;;
10315;SDS011;5203;48.976;8.306;2022-11-21T07:29:19;8.77;;;3.10;;
10315;SDS011;5203;48.976;8.306;2022-11-21T07:31:45;6.90;;;2.93;;
10315;SDS011;5203;48.976;8.306;2022-11-21T07:34:10;8.03;;;2.90;;
10315;SDS011;5203;48.976;8.306;2022-11-21T07:36:36;4.67;;;2.90;;
10315;SDS011;5203;48.976;8.306;2022-11-21T07:39:02;8.80;;;2.67;;
10315;SDS011;5203;48.976;8.306;2022-11-21T07:41:28;7.07;;;2.87;;
10315;SDS011;5203;48.976;8.306;2022-11-21T07:43:54;7.83;;;3.23;;
10315;SDS011;5203;48.976;8.306;2022-11-21T07:46:19;5.63;;;3.10;;
10315;SDS011;5203;48.976;8.306;2022-11-21T07:48:45;8.43;;;2.73;;
10315;SDS011;5203;48.976;8.306;2022-11-21T07:51:11;5.33;;;3.40;;
10315;SDS011;5203;48.976;8.306;2022-11-21T07:53:36;8.93;;;3.10;;
10315;SDS011;5203;48.976;8.306;2022-11-21T07:56:02;7.77;;;3.20;;
10315;SDS011;5203;48.976;8.306;2022-11-21T07:58:29;5.60;;;2.90;;
10315;SDS011;5203;48.976;8.306;2022-11-21T08:00:55;5.57;;;2.83;;
10315;SDS011;5203;48.976;8.306;2022-11-21T08:03:21;7.27;;;3.07;;
10315;SDS011;5203;48.976;8.306;2022-11-21T08:05:49;5.93;;;3.03;;
10315;SDS011;5203;48.976;8.306;2022-11-21T08:08:15;6.70;;;3.00;;
10315;SDS011;5203;48.976;8.306;2022-11-21T08:10:41;6.83;;;2.90;;
10315;SDS011;5203;48.976;8.306;2022-11-21T08:13:08;5.20;;;2.70;;
10315;SDS011;5203;48.976;8.306;2022-11-21T08:15:35;7.60;;;2.70;;
10315;SDS011;5203;48.976;8.306;2022-11-21T08:20:34;4.40;;;3.10;;
10315;SDS011;5203;48.976;8.306;2022-11-21T08:22:59;9.10;;;2.60;;
10315;SDS011;5203;48.976;8.306;2022-11-21T08:25:25;6.47;;;2.80;;
10315;SDS011;5203;48.976;8.306;2022-11-21T08:27:54;7.67;;;2.93;;
10315;SDS011;5203;48.976;8.306;2022-11-21T08:30:22;5.67;;;2.83;;
10315;SDS011;5203;48.976;8.306;2022-11-21T08:32:47;4.50;;;2.57;;
10315;SDS011;5203;48.976;8.306;2022-11-21T08:35:13;5.23;;;3.17;;
10315;SDS011;5203;48.976;8.306;2022-11-21T08:37:39;7.80;;;3.07;;
10315;SDS011;5203;48.976;8.306;2022-11-21T08:40:05;5.13;;;2.90;;
10315;SDS011;5203;48.976;8.306;2022-11-21T08:42:31;7.47;;;2.60;;
10315;SDS011;5203;48.976;8.306;2022-11-21T08:44:56;4.43;;;2.90;;
10315;SDS011;5203;48.976;8.306;2022-11-21T08:47:22;4.10;;;2.77;;
10315;SDS011;5203;48.976;8.306;2022-11-21T08:49:49;5.03;;;2.47;;
10315;SDS011;5203;48.976;8.306;2022-11-21T08:52:15;4.20;;;2.23;;
10315;SDS011;5203;48.976;8.306;2022-11-21T08:54:41;3.90;;;2.30;;
10315;SDS011;5203;48.976;8.306;2022-11-21T08:57:08;4.93;;;2.30;;
10315;SDS011;5203;48.976;8.306;2022-11-21T08:59:34;6.20;;;2.40;;
10315;SDS011;5203;48.976;8.306;2022-11-21T09:02:00;4.33;;;2.63;;
10315;SDS011;5203;48.976;8.306;2022-11-21T09:04:26;3.03;;;2.00;;
10315;SDS011;5203;48.976;8.306;2022-11-21T09:06:52;4.63;;;2.03;;
10315;SDS011;5203;48.976;8.306;2022-11-21T09:09:17;2.80;;;2.20;;
10315;SDS011;5203;48.976;8.306;2022-11-21T09:11:43;5.07;;;2.13;;
10315;SDS011;5203;48.976;8.306;2022-11-21T09:14:10;2.93;;;1.87;;
10315;SDS011;5203;48.976;8.306;2022-11-21T09:16:57;3.83;;;2.40;;
10315;SDS011;5203;48.976;8.306;2022-11-21T09:19:41;4.33;;;2.10;;
10315;SDS011;5203;48.976;8.306;2022-11-21T09:22:07;3.73;;;2.10;;
10315;SDS011;5203;48.976;8.306;2022-11-21T09:24:34;6.63;;;2.30;;
10315;SDS011;5203;48.976;8.306;2022-11-21T09:27:01;6.97;;;2.40;;
10315;SDS011;5203;48.976;8.306;2022-11-21T09:29:27;3.10;;;2.33;;
10315;SDS011;5203;48.976;8.306;2022-11-21T09:31:53;3.60;;;1.97;;
10315;SDS011;5203;48.976;8.306;2022-11-21T09:34:19;3.00;;;1.80;;
10315;SDS011;5203;48.976;8.306;2022-11-21T09:36:47;2.67;;;2.00;;
10315;SDS011;5203;48.976;8.306;2022-11-21T09:39:13;4.70;;;2.40;;
10315;SDS011;5203;48.976;8.306;2022-11-21T09:47:22;4.07;;;2.17;;
10315;SDS011;5203;48.976;8.306;2022-11-21T09:49:52;3.60;;;2.13;;
10315;SDS011;5203;48.976;8.306;2022-11-21T09:52:31;3.53;;;2.23;;
10315;SDS011;5203;48.976;8.306;2022-11-21T09:55:05;4.40;;;2.67;;
10315;SDS011;5203;48.976;8.306;2022-11-21T09:57:41;7.00;;;2.53;;
10315;SDS011;5203;48.976;8.306;2022-11-21T10:00:14;4.93;;;2.67;;
10315;SDS011;5203;48.976;8.306;2022-11-21T10:02:45;6.90;;;2.97;;
10315;SDS011;5203;48.976;8.306;2022-11-21T10:05:12;6.07;;;2.80;;
10315;SDS011;5203;48.976;8.306;2022-11-21T10:07:39;7.07;;;2.70;;
10315;SDS011;5203;48.976;8.306;2022-11-21T10:20:53;7.07;;;3.03;;
10315;SDS011;5203;48.976;8.306;2022-11-21T10:26:15;5.67;;;3.13;;
10315;SDS011;5203;48.976;8.306;2022-11-21T10:31:30;8.90;;;3.00;;
10315;SDS011;5203;48.976;8.306;2022-11-21T10:34:02;6.13;;;2.70;;
10315;SDS011;5203;48.976;8.306;2022-11-21T10:36:36;4.37;;;3.50;;
10315;SDS011;5203;48.976;8.306;2022-11-21T10:39:09;7.33;;;3.50;;
10315;SDS011;5203;48.976;8.306;2022-11-21T10:41:54;5.93;;;3.37;;
10315;SDS011;5203;48.976;8.306;2022-11-21T10:44:27;6.83;;;3.80;;
10315;SDS011;5203;48.976;8.306;2022-11-21T10:53:04;7.63;;;3.57;;
10315;SDS011;5203;48.976;8.306;2022-11-21T10:56:11;4.50;;;2.93;;
10315;SDS011;5203;48.976;8.306;2022-11-21T10:58:45;5.67;;;3.17;;
10315;SDS011;5203;48.976;8.306;2022-11-21T11:06:37;7.87;;;3.53;;
10315;SDS011;5203;48.976;8.306;2022-11-21T11:09:04;4.97;;;2.70;;
10315;SDS011;5203;48.976;8.306;2022-11-21T11:11:31;4.43;;;3.00;;
10315;SDS011;5203;48.976;8.306;2022-11-21T11:14:05;8.30;;;5.13;;
10315;SDS011;5203;48.976;8.306;2022-11-21T11:16:41;5.83;;;3.30;;
10315;SDS011;5203;48.976;8.306;2022-11-21T11:26:31;7.03;;;3.47;;
10315;SDS011;5203;48.976;8.306;2022-11-21T11:29:06;6.90;;;3.10;;
10315;SDS011;5203;48.976;8.306;2022-11-21T11:31:43;6.30;;;3.10;;
10315;SDS011;5203;48.976;8.306;2022-11-21T11:34:34;4.63;;;3.13;;
10315;SDS011;5203;48.976;8.306;2022-11-21T11:37:11;6.03;;;3.13;;
10315;SDS011;5203;48.976;8.306;2022-11-21T11:43:28;7.20;;;3.40;;
10315;SDS011;5203;48.976;8.306;2022-11-21T11:52:42;8.20;;;3.20;;
10315;SDS011;5203;48.976;8.306;2022-11-21T11:55:18;6.83;;;3.43;;
10315;SDS011;5203;48.976;8.306;2022-11-21T11:57:58;5.20;;;3.20;;
10315;SDS011;5203;48.976;8.306;2022-11-21T12:00:32;6.33;;;2.93;;
10315;SDS011;5203;48.976;8.306;2022-11-21T12:05:35;5.60;;;3.30;;
10315;SDS011;5203;48.976;8.306;2022-11-21T12:08:17;5.43;;;3.10;;
10315;SDS011;5203;48.976;8.306;2022-11-21T12:10:56;4.53;;;3.17;;
10315;SDS011;5203;48.976;8.306;2022-11-21T12:13:49;4.73;;;2.43;;
10315;SDS011;5203;48.976;8.306;2022-11-21T12:16:18;3.47;;;2.67;;
10315;SDS011;5203;48.976;8.306;2022-11-21T12:21:14;6.63;;;2.60;;
10315;SDS011;5203;48.976;8.306;2022-11-21T12:39:57;4.30;;;2.50;;
10315;SDS011;5203;48.976;8.306;2022-11-21T12:42:40;6.90;;;2.93;;
10315;SDS011;5203;48.976;8.306;2022-11-21T12:51:33;8.10;;;3.20;;
10315;SDS011;5203;48.976;8.306;2022-11-21T13:05:57;6.30;;;2.70;;
10315;SDS011;5203;48.976;8.306;2022-11-21T13:08:25;5.77;;;2.77;;
10315;SDS011;5203;48.976;8.306;2022-11-21T13:11:06;3.67;;;2.20;;
10315;SDS011;5203;48.976;8.306;2022-11-21T13:16:53;4.13;;;2.70;;
10315;SDS011;5203;48.976;8.306;2022-11-21T13:19:35;6.47;;;4.27;;
10315;SDS011;5203;48.976;8.306;2022-11-21T13:30:55;6.63;;;2.77;;
10315;SDS011;5203;48.976;8.306;2022-11-21T13:35:59;6.93;;;2.97;;
10315;SDS011;5203;48.976;8.306;2022-11-21T13:46:56;4.90;;;2.80;;
10315;SDS011;5203;48.976;8.306;2022-11-21T13:49:48;4.70;;;3.07;;
10315;SDS011;5203;48.976;8.306;2022-11-21T13:55:02;5.40;;;3.03;;
10315;SDS011;5203;48.976;8.306;2022-11-21T13:57:59;4.83;;;3.20;;
10315;SDS011;5203;48.976;8.306;2022-11-21T14:06:17;6.50;;;3.40;;
10315;SDS011;5203;48.976;8.306;2022-11-21T14:12:02;10.00;;;3.93;;
10315;SDS011;5203;48.976;8.306;2022-11-21T14:14:30;5.80;;;4.20;;
10315;SDS011;5203;48.976;8.306;2022-11-21T14:19:30;5.93;;;4.67;;
10315;SDS011;5203;48.976;8.306;2022-11-21T14:21:59;4.87;;;3.77;;
10315;SDS011;5203;48.976;8.306;2022-11-21T14:24:25;6.17;;;3.63;;
10315;SDS011;5203;48.976;8.306;2022-11-21T14:26:51;6.30;;;4.10;;
10315;SDS011;5203;48.976;8.306;2022-11-21T14:29:36;8.13;;;6.97;;
10315;SDS011;5203;48.976;8.306;2022-11-21T14:32:03;10.37;;;9.37;;
10315;SDS011;5203;48.976;8.306;2022-11-21T14:34:30;5.97;;;5.03;;
10315;SDS011;5203;48.976;8.306;2022-11-21T14:37:01;5.47;;;4.07;;
10315;SDS011;5203;48.976;8.306;2022-11-21T14:39:30;5.67;;;3.50;;
10315;SDS011;5203;48.976;8.306;2022-11-21T14:41:58;5.07;;;3.50;;
10315;SDS011;5203;48.976;8.306;2022-11-21T14:44:27;6.07;;;3.47;;
10315;SDS011;5203;48.976;8.306;2022-11-21T14:49:49;4.73;;;3.83;;
10315;SDS011;5203;48.976;8.306;2022-11-21T14:52:26;6.73;;;3.77;;
10315;SDS011;5203;48.976;8.306;2022-11-21T14:54:58;12.47;;;4.40;;
10315;SDS011;5203;48.976;8.306;2022-11-21T14:57:35;19.30;;;6.33;;
10315;SDS011;5203;48.976;8.306;2022-11-21T15:00:06;7.83;;;6.37;;
10315;SDS011;5203;48.976;8.306;2022-11-21T15:02:36;7.87;;;5.00;;
10315;SDS011;5203;48.976;8.306;2022-11-21T15:05:04;7.20;;;5.57;;
10315;SDS011;5203;48.976;8.306;2022-11-21T15:07:38;7.00;;;4.83;;
10315;SDS011;5203;48.976;8.306;2022-11-21T15:10:12;6.30;;;4.20;;
10315;SDS011;5203;48.976;8.306;2022-11-21T15:15:22;6.43;;;3.80;;
10315;SDS011;5203;48.976;8.306;2022-11-21T15:17:56;9.47;;;4.27;;
10315;SDS011;5203;48.976;8.306;2022-11-21T15:20:24;6.30;;;4.33;;
10315;SDS011;5203;48.976;8.306;2022-11-21T15:22:53;6.77;;;4.30;;
10315;SDS011;5203;48.976;8.306;2022-11-21T15:25:25;9.00;;;5.10;;
10315;SDS011;5203;48.976;8.306;2022-11-21T15:30:28;8.30;;;3.93;;
10315;SDS011;5203;48.976;8.306;2022-11-21T15:48:58;7.33;;;5.13;;
10315;SDS011;5203;48.976;8.306;2022-11-21T15:54:00;8.83;;;6.10;;
10315;SDS011;5203;48.976;8.306;2022-11-21T15:56:26;5.97;;;5.20;;
10315;SDS011;5203;48.976;8.306;2022-11-21T15:58:52;6.87;;;5.27;;
10315;SDS011;5203;48.976;8.306;2022-11-21T16:03:44;8.90;;;5.03;;
10315;SDS011;5203;48.976;8.306;2022-11-21T16:06:12;7.37;;;5.10;;
10315;SDS011;5203;48.976;8.306;2022-11-21T16:08:38;8.60;;;5.20;;
10315;SDS011;5203;48.976;8.306;2022-11-21T16:11:04;7.83;;;5.40;;
10315;SDS011;5203;48.976;8.306;2022-11-21T16:13:30;9.70;;;6.33;;
10315;SDS011;5203;48.976;8.306;2022-11-21T16:15:58;11.13;;;6.13;;
10315;SDS011;5203;48.976;8.306;2022-11-21T16:18:25;7.53;;;4.80;;
10315;SDS011;5203;48.976;8.306;2022-11-21T16:20:51;6.27;;;5.03;;
10315;SDS011;5203;48.976;8.306;2022-11-21T16:23:16;8.77;;;5.10;;
10315;SDS011;5203;48.976;8.306;2022-11-21T16:25:52;7.97;;;4.70;;
10315;SDS011;5203;48.976;8.306;2022-11-21T16:28:18;6.30;;;4.70;;
10315;SDS011;5203;48.976;8.306;2022-11-21T16:30:44;5.83;;;4.70;;
10315;SDS011;5203;48.976;8.306;2022-11-21T16:33:09;7.27;;;4.23;;
10315;SDS011;5203;48.976;8.306;2022-11-21T16:35:38;7.70;;;6.40;;
10315;SDS011;5203;48.976;8.306;2022-11-21T16:38:07;22.60;;;18.77;;
10315;SDS011;5203;48.976;8.306;2022-11-21T16:40:33;11.60;;;8.83;;
10315;SDS011;5203;48.976;8.306;2022-11-21T16:43:06;9.70;;;7.03;;
10315;SDS011;5203;48.976;8.306;2022-11-21T16:45:34;8.80;;;6.43;;
10315;SDS011;5203;48.976;8.306;2022-11-21T16:48:01;7.07;;;5.10;;
10315;SDS011;5203;48.976;8.306;2022-11-21T16:50:26;4.77;;;3.73;;
10315;SDS011;5203;48.976;8.306;2022-11-21T16:52:52;6.77;;;4.30;;
10315;SDS011;5203;48.976;8.306;2022-11-21T16:55:18;7.20;;;4.10;;
10315;SDS011;5203;48.976;8.306;2022-11-21T16:57:50;5.70;;;4.13;;
10315;SDS011;5203;48.976;8.306;2022-11-21T17:00:17;6.63;;;5.40;;
10315;SDS011;5203;48.976;8.306;2022-11-21T17:02:43;10.33;;;6.50;;
10315;SDS011;5203;48.976;8.306;2022-11-21T17:05:09;7.43;;;5.80;;
10315;SDS011;5203;48.976;8.306;2022-11-21T17:07:35;7.00;;;4.40;;
10315;SDS011;5203;48.976;8.306;2022-11-21T17:10:01;4.83;;;4.03;;
10315;SDS011;5203;48.976;8.306;2022-11-21T17:12:26;6.90;;;4.50;;
10315;SDS011;5203;48.976;8.306;2022-11-21T17:14:52;5.57;;;4.97;;
10315;SDS011;5203;48.976;8.306;2022-11-21T17:17:18;11.33;;;6.80;;
10315;SDS011;5203;48.976;8.306;2022-11-21T17:19:44;14.37;;;7.47;;
10315;SDS011;5203;48.976;8.306;2022-11-21T17:22:10;11.87;;;6.63;;
10315;SDS011;5203;48.976;8.306;2022-11-21T17:24:38;13.57;;;6.97;;
10315;SDS011;5203;48.976;8.306;2022-11-21T17:27:04;12.80;;;6.60;;
10315;SDS011;5203;48.976;8.306;2022-11-21T17:29:30;10.23;;;5.90;;
10315;SDS011;5203;48.976;8.306;2022-11-21T17:31:56;13.27;;;6.83;;
10315;SDS011;5203;48.976;8.306;2022-11-21T17:34:22;17.70;;;7.77;;
10315;SDS011;5203;48.976;8.306;2022-11-21T17:36:48;21.20;;;8.10;;
10315;SDS011;5203;48.976;8.306;2022-11-21T17:39:14;17.23;;;5.97;;
10315;SDS011;5203;48.976;8.306;2022-11-21T17:41:42;13.37;;;6.70;;
10315;SDS011;5203;48.976;8.306;2022-11-21T17:44:08;11.27;;;5.67;;
10315;SDS011;5203;48.976;8.306;2022-11-21T17:46:37;5.90;;;5.13;;
10315;SDS011;5203;48.976;8.306;2022-11-21T17:49:02;6.90;;;5.07;;
10315;SDS011;5203;48.976;8.306;2022-11-21T17:51:30;7.13;;;5.00;;
10315;SDS011;5203;48.976;8.306;2022-11-21T17:53:58;5.50;;;4.37;;
10315;SDS011;5203;48.976;8.306;2022-11-21T17:56:26;8.50;;;5.00;;
10315;SDS011;5203;48.976;8.306;2022-11-21T17:58:53;12.67;;;8.17;;
10315;SDS011;5203;48.976;8.306;2022-11-21T18:01:20;8.47;;;7.57;;
10315;SDS011;5203;48.976;8.306;2022-11-21T18:03:47;6.47;;;5.60;;
10315;SDS011;5203;48.976;8.306;2022-11-21T18:06:18;4.87;;;4.10;;